sensor_id;sensor_type;location;lat;lon;timestamp;temperature;humidity
72762;SHT30;60886;55.034;73.150;2023-07-02T00:01:09;17.13;65.16
72762;SHT30;60886;55.034;73.150;2023-07-02T00:04:10;17.17;64.36
72762;SHT30;60886;55.034;73.150;2023-07-02T00:07:14;17.13;64.23
72762;SHT30;60886;55.034;73.150;2023-07-02T00:10:16;17.13;66.45
72762;SHT30;60886;55.034;73.150;2023-07-02T00:13:17;17.16;64.89
72762;SHT30;60886;55.034;73.150;2023-07-02T00:16:19;17.23;64.15
72762;SHT30;60886;55.034;73.150;2023-07-02T00:19:22;17.30;64.39
72762;SHT30;60886;55.034;73.150;2023-07-02T00:22:23;17.38;63.78
72762;SHT30;60886;55.034;73.150;2023-07-02T00:25:25;17.41;62.83
72762;SHT30;60886;55.034;73.150;2023-07-02T00:28:26;17.47;63.77
72762;SHT30;60886;55.034;73.150;2023-07-02T00:31:28;17.44;64.13
72762;SHT30;60886;55.034;73.150;2023-07-02T00:34:30;17.45;64.10
72762;SHT30;60886;55.034;73.150;2023-07-02T00:37:31;17.48;64.36
72762;SHT30;60886;55.034;73.150;2023-07-02T00:40:38;17.48;63.46
72762;SHT30;60886;55.034;73.150;2023-07-02T00:43:40;17.55;63.89
72762;SHT30;60886;55.034;73.150;2023-07-02T00:46:45;17.57;64.02
72762;SHT30;60886;55.034;73.150;2023-07-02T00:49:47;17.60;64.99
72762;SHT30;60886;55.034;73.150;2023-07-02T00:52:48;17.65;63.93
72762;SHT30;60886;55.034;73.150;2023-07-02T00:55:50;17.75;62.67
72762;SHT30;60886;55.034;73.150;2023-07-02T00:58:54;17.99;61.88
72762;SHT30;60886;55.034;73.150;2023-07-02T01:01:56;18.43;61.63
72762;SHT30;60886;55.034;73.150;2023-07-02T01:04:57;18.56;59.24
72762;SHT30;60886;55.034;73.150;2023-07-02T01:08:03;18.78;60.38
72762;SHT30;60886;55.034;73.150;2023-07-02T01:11:04;19.07;59.80
72762;SHT30;60886;55.034;73.150;2023-07-02T01:14:21;19.32;58.74
72762;SHT30;60886;55.034;73.150;2023-07-02T01:17:26;19.66;57.15
72762;SHT30;60886;55.034;73.150;2023-07-02T01:20:38;19.92;57.43
72762;SHT30;60886;55.034;73.150;2023-07-02T01:23:41;20.26;56.17
72762;SHT30;60886;55.034;73.150;2023-07-02T01:26:43;20.51;56.43
72762;SHT30;60886;55.034;73.150;2023-07-02T01:29:44;20.73;56.67
72762;SHT30;60886;55.034;73.150;2023-07-02T01:32:47;20.95;55.48
72762;SHT30;60886;55.034;73.150;2023-07-02T01:35:51;21.18;56.46
72762;SHT30;60886;55.034;73.150;2023-07-02T01:38:52;21.31;56.03
72762;SHT30;60886;55.034;73.150;2023-07-02T01:41:55;21.37;55.08
72762;SHT30;60886;55.034;73.150;2023-07-02T01:44:57;21.56;54.67
72762;SHT30;60886;55.034;73.150;2023-07-02T01:47:59;21.66;54.02
72762;SHT30;60886;55.034;73.150;2023-07-02T01:51:00;21.82;53.48
72762;SHT30;60886;55.034;73.150;2023-07-02T01:54:02;21.92;53.12
72762;SHT30;60886;55.034;73.150;2023-07-02T01:57:04;22.01;56.01
72762;SHT30;60886;55.034;73.150;2023-07-02T02:00:06;22.10;55.24
72762;SHT30;60886;55.034;73.150;2023-07-02T02:03:17;22.43;54.26
72762;SHT30;60886;55.034;73.150;2023-07-02T02:06:19;22.58;55.83
72762;SHT30;60886;55.034;73.150;2023-07-02T02:09:20;22.76;53.50
72762;SHT30;60886;55.034;73.150;2023-07-02T02:12:22;22.90;52.45
72762;SHT30;60886;55.034;73.150;2023-07-02T02:15:23;23.09;54.47
72762;SHT30;60886;55.034;73.150;2023-07-02T02:18:25;23.33;55.54
72762;SHT30;60886;55.034;73.150;2023-07-02T02:21:47;23.47;52.08
72762;SHT30;60886;55.034;73.150;2023-07-02T02:24:49;23.63;53.17
72762;SHT30;60886;55.034;73.150;2023-07-02T02:27:50;23.74;51.99
72762;SHT30;60886;55.034;73.150;2023-07-02T02:30:52;23.84;51.95
72762;SHT30;60886;55.034;73.150;2023-07-02T02:33:54;24.03;54.87
72762;SHT30;60886;55.034;73.150;2023-07-02T02:36:57;24.13;51.42
72762;SHT30;60886;55.034;73.150;2023-07-02T02:39:59;24.20;52.57
72762;SHT30;60886;55.034;73.150;2023-07-02T02:43:01;24.30;51.25
72762;SHT30;60886;55.034;73.150;2023-07-02T02:46:03;24.37;52.53
72762;SHT30;60886;55.034;73.150;2023-07-02T02:49:04;24.51;52.26
72762;SHT30;60886;55.034;73.150;2023-07-02T02:52:06;24.69;54.11
72762;SHT30;60886;55.034;73.150;2023-07-02T02:55:09;25.01;52.10
72762;SHT30;60886;55.034;73.150;2023-07-02T02:58:12;25.09;52.25
72762;SHT30;60886;55.034;73.150;2023-07-02T03:01:13;25.30;50.64
72762;SHT30;60886;55.034;73.150;2023-07-02T03:04:16;25.37;48.24
72762;SHT30;60886;55.034;73.150;2023-07-02T03:07:17;25.49;48.02
72762;SHT30;60886;55.034;73.150;2023-07-02T03:10:19;25.65;50.61
72762;SHT30;60886;55.034;73.150;2023-07-02T03:13:21;25.90;50.54
72762;SHT30;60886;55.034;73.150;2023-07-02T03:16:22;25.97;49.36
72762;SHT30;60886;55.034;73.150;2023-07-02T03:19:24;26.14;47.29
72762;SHT30;60886;55.034;73.150;2023-07-02T03:22:26;26.30;50.34
72762;SHT30;60886;55.034;73.150;2023-07-02T03:25:27;26.48;46.19
72762;SHT30;60886;55.034;73.150;2023-07-02T03:28:28;26.56;48.52
72762;SHT30;60886;55.034;73.150;2023-07-02T03:31:30;26.58;46.29
72762;SHT30;60886;55.034;73.150;2023-07-02T03:34:31;26.76;47.03
72762;SHT30;60886;55.034;73.150;2023-07-02T03:37:33;26.86;45.28
72762;SHT30;60886;55.034;73.150;2023-07-02T03:40:38;27.07;45.17
72762;SHT30;60886;55.034;73.150;2023-07-02T03:43:40;27.19;47.36
72762;SHT30;60886;55.034;73.150;2023-07-02T03:46:42;27.39;47.53
72762;SHT30;60886;55.034;73.150;2023-07-02T03:49:44;27.47;44.50
72762;SHT30;60886;55.034;73.150;2023-07-02T03:52:46;27.53;44.84
72762;SHT30;60886;55.034;73.150;2023-07-02T03:55:47;27.61;47.77
72762;SHT30;60886;55.034;73.150;2023-07-02T03:58:49;27.61;44.41
72762;SHT30;60886;55.034;73.150;2023-07-02T04:01:50;27.73;43.62
72762;SHT30;60886;55.034;73.150;2023-07-02T04:04:52;27.83;42.55
72762;SHT30;60886;55.034;73.150;2023-07-02T04:07:54;27.83;42.77
72762;SHT30;60886;55.034;73.150;2023-07-02T04:10:56;28.01;42.43
72762;SHT30;60886;55.034;73.150;2023-07-02T04:13:57;28.11;44.01
72762;SHT30;60886;55.034;73.150;2023-07-02T04:16:59;28.32;45.25
72762;SHT30;60886;55.034;73.150;2023-07-02T04:20:01;28.47;43.07
72762;SHT30;60886;55.034;73.150;2023-07-02T04:23:06;28.61;43.89
72762;SHT30;60886;55.034;73.150;2023-07-02T04:26:07;28.59;40.13
72762;SHT30;60886;55.034;73.150;2023-07-02T04:29:09;28.56;40.76
72762;SHT30;60886;55.034;73.150;2023-07-02T04:32:12;28.55;42.91
72762;SHT30;60886;55.034;73.150;2023-07-02T04:35:13;28.66;42.48
72762;SHT30;60886;55.034;73.150;2023-07-02T04:38:16;28.80;41.68
72762;SHT30;60886;55.034;73.150;2023-07-02T04:41:18;28.98;40.22
72762;SHT30;60886;55.034;73.150;2023-07-02T04:44:20;29.10;40.87
72762;SHT30;60886;55.034;73.150;2023-07-02T04:47:30;29.26;40.55
72762;SHT30;60886;55.034;73.150;2023-07-02T04:50:38;29.17;40.04
72762;SHT30;60886;55.034;73.150;2023-07-02T04:53:39;29.13;38.63
72762;SHT30;60886;55.034;73.150;2023-07-02T04:56:41;29.26;39.49
72762;SHT30;60886;55.034;73.150;2023-07-02T04:59:43;29.37;39.39
72762;SHT30;60886;55.034;73.150;2023-07-02T05:02:47;29.38;38.84
72762;SHT30;60886;55.034;73.150;2023-07-02T05:05:49;29.38;41.02
72762;SHT30;60886;55.034;73.150;2023-07-02T05:08:50;29.51;39.18
72762;SHT30;60886;55.034;73.150;2023-07-02T05:11:54;29.54;39.68
72762;SHT30;60886;55.034;73.150;2023-07-02T05:14:55;29.51;40.06
72762;SHT30;60886;55.034;73.150;2023-07-02T05:17:57;29.63;39.25
72762;SHT30;60886;55.034;73.150;2023-07-02T05:20:58;29.65;37.74
72762;SHT30;60886;55.034;73.150;2023-07-02T05:24:00;29.64;38.53
72762;SHT30;60886;55.034;73.150;2023-07-02T05:27:01;29.61;38.73
72762;SHT30;60886;55.034;73.150;2023-07-02T05:30:03;29.74;39.59
72762;SHT30;60886;55.034;73.150;2023-07-02T05:33:06;29.89;38.91
72762;SHT30;60886;55.034;73.150;2023-07-02T05:36:07;29.97;39.63
72762;SHT30;60886;55.034;73.150;2023-07-02T05:39:09;30.08;38.92
72762;SHT30;60886;55.034;73.150;2023-07-02T05:42:19;30.14;38.10
72762;SHT30;60886;55.034;73.150;2023-07-02T05:45:21;30.04;40.43
72762;SHT30;60886;55.034;73.150;2023-07-02T05:48:22;30.08;38.88
72762;SHT30;60886;55.034;73.150;2023-07-02T05:51:24;29.91;38.65
72762;SHT30;60886;55.034;73.150;2023-07-02T05:54:26;29.84;38.86
72762;SHT30;60886;55.034;73.150;2023-07-02T05:57:27;29.98;39.01
72762;SHT30;60886;55.034;73.150;2023-07-02T06:00:38;29.92;39.12
72762;SHT30;60886;55.034;73.150;2023-07-02T06:03:42;29.85;38.62
72762;SHT30;60886;55.034;73.150;2023-07-02T06:06:46;29.94;38.53
72762;SHT30;60886;55.034;73.150;2023-07-02T06:09:47;29.87;38.06
72762;SHT30;60886;55.034;73.150;2023-07-02T06:12:49;29.82;37.85
72762;SHT30;60886;55.034;73.150;2023-07-02T06:15:50;29.78;39.43
72762;SHT30;60886;55.034;73.150;2023-07-02T06:18:52;29.87;38.67
72762;SHT30;60886;55.034;73.150;2023-07-02T06:21:53;29.75;39.08
72762;SHT30;60886;55.034;73.150;2023-07-02T06:24:55;29.84;39.21
72762;SHT30;60886;55.034;73.150;2023-07-02T06:27:56;29.89;39.53
72762;SHT30;60886;55.034;73.150;2023-07-02T06:30:59;29.91;38.83
72762;SHT30;60886;55.034;73.150;2023-07-02T06:34:01;29.84;37.54
72762;SHT30;60886;55.034;73.150;2023-07-02T06:37:02;29.74;37.84
72762;SHT30;60886;55.034;73.150;2023-07-02T06:40:05;29.75;38.07
72762;SHT30;60886;55.034;73.150;2023-07-02T06:43:07;29.74;39.54
72762;SHT30;60886;55.034;73.150;2023-07-02T06:46:10;29.75;38.95
72762;SHT30;60886;55.034;73.150;2023-07-02T06:49:12;29.67;37.92
72762;SHT30;60886;55.034;73.150;2023-07-02T06:52:13;29.68;38.19
72762;SHT30;60886;55.034;73.150;2023-07-02T06:55:15;29.58;39.26
72762;SHT30;60886;55.034;73.150;2023-07-02T06:58:16;29.63;39.33
72762;SHT30;60886;55.034;73.150;2023-07-02T07:01:18;29.64;39.37
72762;SHT30;60886;55.034;73.150;2023-07-02T07:04:19;29.67;39.59
72762;SHT30;60886;55.034;73.150;2023-07-02T07:07:21;29.64;38.61
72762;SHT30;60886;55.034;73.150;2023-07-02T07:10:22;29.64;39.10
72762;SHT30;60886;55.034;73.150;2023-07-02T07:13:24;29.60;38.02
72762;SHT30;60886;55.034;73.150;2023-07-02T07:16:25;29.68;40.77
72762;SHT30;60886;55.034;73.150;2023-07-02T07:19:37;29.77;38.81
72762;SHT30;60886;55.034;73.150;2023-07-02T07:22:39;29.80;38.08
72762;SHT30;60886;55.034;73.150;2023-07-02T07:25:40;29.92;38.76
72762;SHT30;60886;55.034;73.150;2023-07-02T07:28:42;29.92;38.44
72762;SHT30;60886;55.034;73.150;2023-07-02T07:31:49;30.04;38.92
72762;SHT30;60886;55.034;73.150;2023-07-02T07:34:51;29.91;38.78
72762;SHT30;60886;55.034;73.150;2023-07-02T07:37:53;29.92;39.25
72762;SHT30;60886;55.034;73.150;2023-07-02T07:40:54;29.92;38.80
72762;SHT30;60886;55.034;73.150;2023-07-02T07:43:55;29.81;37.87
72762;SHT30;60886;55.034;73.150;2023-07-02T07:46:57;29.87;38.16
72762;SHT30;60886;55.034;73.150;2023-07-02T07:49:58;29.82;37.13
72762;SHT30;60886;55.034;73.150;2023-07-02T07:53:01;29.81;38.02
72762;SHT30;60886;55.034;73.150;2023-07-02T07:56:02;29.87;39.22
72762;SHT30;60886;55.034;73.150;2023-07-02T07:59:03;29.70;37.98
72762;SHT30;60886;55.034;73.150;2023-07-02T08:02:05;29.65;37.96
72762;SHT30;60886;55.034;73.150;2023-07-02T08:05:07;29.65;37.77
72762;SHT30;60886;55.034;73.150;2023-07-02T08:08:09;29.63;37.20
72762;SHT30;60886;55.034;73.150;2023-07-02T08:11:10;29.68;38.48
72762;SHT30;60886;55.034;73.150;2023-07-02T08:14:13;29.71;38.88
72762;SHT30;60886;55.034;73.150;2023-07-02T08:17:14;29.68;38.43
72762;SHT30;60886;55.034;73.150;2023-07-02T08:20:16;29.65;37.90
72762;SHT30;60886;55.034;73.150;2023-07-02T08:23:18;29.75;38.05
72762;SHT30;60886;55.034;73.150;2023-07-02T08:26:19;29.91;39.35
72762;SHT30;60886;55.034;73.150;2023-07-02T08:29:21;29.92;37.94
72762;SHT30;60886;55.034;73.150;2023-07-02T08:32:22;29.95;37.72
72762;SHT30;60886;55.034;73.150;2023-07-02T08:35:24;30.14;38.41
72762;SHT30;60886;55.034;73.150;2023-07-02T08:38:26;30.27;37.31
72762;SHT30;60886;55.034;73.150;2023-07-02T08:41:28;30.28;35.49
72762;SHT30;60886;55.034;73.150;2023-07-02T08:44:30;30.22;35.28
72762;SHT30;60886;55.034;73.150;2023-07-02T08:47:32;30.15;35.78
72762;SHT30;60886;55.034;73.150;2023-07-02T08:50:38;30.22;36.57
72762;SHT30;60886;55.034;73.150;2023-07-02T08:53:40;30.35;37.58
72762;SHT30;60886;55.034;73.150;2023-07-02T08:56:41;30.46;35.38
72762;SHT30;60886;55.034;73.150;2023-07-02T08:59:42;30.35;36.31
72762;SHT30;60886;55.034;73.150;2023-07-02T09:02:44;30.22;36.72
72762;SHT30;60886;55.034;73.150;2023-07-02T09:05:52;30.24;35.75
72762;SHT30;60886;55.034;73.150;2023-07-02T09:09:03;30.17;35.62
72762;SHT30;60886;55.034;73.150;2023-07-02T09:12:05;30.24;36.21
72762;SHT30;60886;55.034;73.150;2023-07-02T09:15:07;30.27;35.80
72762;SHT30;60886;55.034;73.150;2023-07-02T09:18:19;30.25;35.01
72762;SHT30;60886;55.034;73.150;2023-07-02T09:21:21;30.22;35.97
72762;SHT30;60886;55.034;73.150;2023-07-02T09:24:24;30.32;35.99
72762;SHT30;60886;55.034;73.150;2023-07-02T09:27:39;30.38;36.36
72762;SHT30;60886;55.034;73.150;2023-07-02T09:30:55;30.35;34.89
72762;SHT30;60886;55.034;73.150;2023-07-02T09:34:03;30.33;36.46
72762;SHT30;60886;55.034;73.150;2023-07-02T09:37:05;30.38;35.01
72762;SHT30;60886;55.034;73.150;2023-07-02T09:40:07;30.42;36.18
72762;SHT30;60886;55.034;73.150;2023-07-02T09:43:11;30.33;35.69
72762;SHT30;60886;55.034;73.150;2023-07-02T09:46:13;30.42;35.81
72762;SHT30;60886;55.034;73.150;2023-07-02T09:49:16;30.49;34.44
72762;SHT30;60886;55.034;73.150;2023-07-02T09:52:18;30.48;36.78
72762;SHT30;60886;55.034;73.150;2023-07-02T09:55:21;30.59;36.13
72762;SHT30;60886;55.034;73.150;2023-07-02T09:58:23;30.59;34.92
72762;SHT30;60886;55.034;73.150;2023-07-02T10:01:25;30.63;36.36
72762;SHT30;60886;55.034;73.150;2023-07-02T10:04:27;30.62;34.85
72762;SHT30;60886;55.034;73.150;2023-07-02T10:07:30;30.59;35.18
72762;SHT30;60886;55.034;73.150;2023-07-02T10:10:38;30.63;37.00
72762;SHT30;60886;55.034;73.150;2023-07-02T10:13:40;30.66;35.74
72762;SHT30;60886;55.034;73.150;2023-07-02T10:16:52;30.70;35.39
72762;SHT30;60886;55.034;73.150;2023-07-02T10:19:55;30.78;36.03
72762;SHT30;60886;55.034;73.150;2023-07-02T10:22:56;30.83;36.32
72762;SHT30;60886;55.034;73.150;2023-07-02T10:25:58;30.78;35.62
72762;SHT30;60886;55.034;73.150;2023-07-02T10:29:00;30.79;35.34
72762;SHT30;60886;55.034;73.150;2023-07-02T10:32:01;30.56;36.19
72762;SHT30;60886;55.034;73.150;2023-07-02T10:35:24;30.45;36.08
72762;SHT30;60886;55.034;73.150;2023-07-02T10:38:27;30.29;37.24
72762;SHT30;60886;55.034;73.150;2023-07-02T10:41:29;30.18;35.94
72762;SHT30;60886;55.034;73.150;2023-07-02T10:44:31;30.25;36.79
72762;SHT30;60886;55.034;73.150;2023-07-02T10:47:33;30.31;36.67
72762;SHT30;60886;55.034;73.150;2023-07-02T10:50:38;30.43;37.52
72762;SHT30;60886;55.034;73.150;2023-07-02T10:53:39;30.48;36.51
72762;SHT30;60886;55.034;73.150;2023-07-02T10:56:41;30.43;36.45
72762;SHT30;60886;55.034;73.150;2023-07-02T10:59:43;30.42;36.58
72762;SHT30;60886;55.034;73.150;2023-07-02T11:02:45;30.48;37.04
72762;SHT30;60886;55.034;73.150;2023-07-02T11:05:47;30.60;36.91
72762;SHT30;60886;55.034;73.150;2023-07-02T11:08:49;30.56;36.95
72762;SHT30;60886;55.034;73.150;2023-07-02T11:11:55;30.60;36.27
72762;SHT30;60886;55.034;73.150;2023-07-02T11:15:10;30.66;36.56
72762;SHT30;60886;55.034;73.150;2023-07-02T11:18:13;30.59;35.59
72762;SHT30;60886;55.034;73.150;2023-07-02T11:21:15;30.40;35.39
72762;SHT30;60886;55.034;73.150;2023-07-02T11:27:33;30.18;36.92
72762;SHT30;60886;55.034;73.150;2023-07-02T11:30:45;30.09;36.56
72762;SHT30;60886;55.034;73.150;2023-07-02T11:33:46;30.02;36.89
72762;SHT30;60886;55.034;73.150;2023-07-02T11:36:50;30.00;37.00
72762;SHT30;60886;55.034;73.150;2023-07-02T11:39:51;30.05;37.95
72762;SHT30;60886;55.034;73.150;2023-07-02T11:42:53;30.12;38.02
72762;SHT30;60886;55.034;73.150;2023-07-02T11:45:54;30.14;37.69
72762;SHT30;60886;55.034;73.150;2023-07-02T11:48:57;30.28;37.76
72762;SHT30;60886;55.034;73.150;2023-07-02T11:52:16;30.36;37.84
72762;SHT30;60886;55.034;73.150;2023-07-02T11:55:18;30.36;36.78
72762;SHT30;60886;55.034;73.150;2023-07-02T11:58:19;30.40;36.57
72762;SHT30;60886;55.034;73.150;2023-07-02T12:01:21;30.49;36.65
72762;SHT30;60886;55.034;73.150;2023-07-02T12:04:22;30.42;37.21
72762;SHT30;60886;55.034;73.150;2023-07-02T12:07:24;30.52;37.26
72762;SHT30;60886;55.034;73.150;2023-07-02T12:10:38;30.59;36.91
72762;SHT30;60886;55.034;73.150;2023-07-02T12:13:39;30.63;35.82
72762;SHT30;60886;55.034;73.150;2023-07-02T12:16:42;30.60;36.12
72762;SHT30;60886;55.034;73.150;2023-07-02T12:19:44;30.60;35.15
72762;SHT30;60886;55.034;73.150;2023-07-02T12:22:45;30.55;34.86
72762;SHT30;60886;55.034;73.150;2023-07-02T12:25:47;30.53;35.78
72762;SHT30;60886;55.034;73.150;2023-07-02T12:28:48;30.43;35.11
72762;SHT30;60886;55.034;73.150;2023-07-02T12:31:50;30.46;35.42
72762;SHT30;60886;55.034;73.150;2023-07-02T12:34:51;30.45;35.20
72762;SHT30;60886;55.034;73.150;2023-07-02T12:37:53;30.48;35.28
72762;SHT30;60886;55.034;73.150;2023-07-02T12:40:54;30.40;35.48
72762;SHT30;60886;55.034;73.150;2023-07-02T12:43:56;30.42;34.82
72762;SHT30;60886;55.034;73.150;2023-07-02T12:46:58;30.35;35.25
72762;SHT30;60886;55.034;73.150;2023-07-02T12:49:59;30.32;34.88
72762;SHT30;60886;55.034;73.150;2023-07-02T12:53:01;30.32;34.54
72762;SHT30;60886;55.034;73.150;2023-07-02T12:56:02;30.35;35.01
72762;SHT30;60886;55.034;73.150;2023-07-02T12:59:04;30.36;34.34
72762;SHT30;60886;55.034;73.150;2023-07-02T13:02:05;30.28;35.38
72762;SHT30;60886;55.034;73.150;2023-07-02T13:05:08;30.25;34.86
72762;SHT30;60886;55.034;73.150;2023-07-02T13:08:10;30.24;35.45
72762;SHT30;60886;55.034;73.150;2023-07-02T13:11:11;30.12;34.99
72762;SHT30;60886;55.034;73.150;2023-07-02T13:14:12;30.04;34.98
72762;SHT30;60886;55.034;73.150;2023-07-02T13:17:14;29.98;35.34
72762;SHT30;60886;55.034;73.150;2023-07-02T13:20:15;29.89;35.82
72762;SHT30;60886;55.034;73.150;2023-07-02T13:23:16;29.82;35.53
72762;SHT30;60886;55.034;73.150;2023-07-02T13:26:18;29.82;36.26
72762;SHT30;60886;55.034;73.150;2023-07-02T13:29:20;29.75;36.26
72762;SHT30;60886;55.034;73.150;2023-07-02T13:32:22;29.73;36.43
72762;SHT30;60886;55.034;73.150;2023-07-02T13:35:23;29.63;36.60
72762;SHT30;60886;55.034;73.150;2023-07-02T13:38:25;29.54;36.22
72762;SHT30;60886;55.034;73.150;2023-07-02T13:41:26;29.50;38.51
72762;SHT30;60886;55.034;73.150;2023-07-02T13:44:31;29.40;36.13
72762;SHT30;60886;55.034;73.150;2023-07-02T13:47:33;29.33;36.59
72762;SHT30;60886;55.034;73.150;2023-07-02T13:50:38;29.27;36.73
72762;SHT30;60886;55.034;73.150;2023-07-02T13:53:39;29.24;36.54
72762;SHT30;60886;55.034;73.150;2023-07-02T13:56:41;29.19;37.45
72762;SHT30;60886;55.034;73.150;2023-07-02T13:59:42;29.10;37.25
72762;SHT30;60886;55.034;73.150;2023-07-02T14:02:44;29.02;37.42
72762;SHT30;60886;55.034;73.150;2023-07-02T14:05:45;28.96;37.31
72762;SHT30;60886;55.034;73.150;2023-07-02T14:08:47;28.92;37.31
72762;SHT30;60886;55.034;73.150;2023-07-02T14:11:48;28.84;38.18
72762;SHT30;60886;55.034;73.150;2023-07-02T14:14:49;28.79;37.51
72762;SHT30;60886;55.034;73.150;2023-07-02T14:17:51;28.71;37.10
72762;SHT30;60886;55.034;73.150;2023-07-02T14:20:52;28.65;37.80
72762;SHT30;60886;55.034;73.150;2023-07-02T14:23:57;28.55;38.15
72762;SHT30;60886;55.034;73.150;2023-07-02T14:26:58;28.52;37.62
72762;SHT30;60886;55.034;73.150;2023-07-02T14:30:00;28.44;38.29
72762;SHT30;60886;55.034;73.150;2023-07-02T14:33:09;28.39;38.72
72762;SHT30;60886;55.034;73.150;2023-07-02T14:36:10;28.29;38.56
72762;SHT30;60886;55.034;73.150;2023-07-02T14:39:12;28.22;38.87
72762;SHT30;60886;55.034;73.150;2023-07-02T14:42:14;28.14;39.89
72762;SHT30;60886;55.034;73.150;2023-07-02T14:45:16;28.07;40.23
72762;SHT30;60886;55.034;73.150;2023-07-02T14:48:18;27.98;40.57
72762;SHT30;60886;55.034;73.150;2023-07-02T14:51:20;27.90;40.64
72762;SHT30;60886;55.034;73.150;2023-07-02T14:54:21;27.83;41.00
72762;SHT30;60886;55.034;73.150;2023-07-02T14:57:23;27.76;41.02
72762;SHT30;60886;55.034;73.150;2023-07-02T15:00:24;27.70;41.41
72762;SHT30;60886;55.034;73.150;2023-07-02T15:03:27;27.60;41.93
72762;SHT30;60886;55.034;73.150;2023-07-02T15:06:29;27.47;42.88
72762;SHT30;60886;55.034;73.150;2023-07-02T15:09:30;27.34;43.04
72762;SHT30;60886;55.034;73.150;2023-07-02T15:12:32;27.17;42.87
72762;SHT30;60886;55.034;73.150;2023-07-02T15:15:38;27.07;46.17
72762;SHT30;60886;55.034;73.150;2023-07-02T15:18:41;26.92;44.23
72762;SHT30;60886;55.034;73.150;2023-07-02T15:21:42;26.79;45.01
72762;SHT30;60886;55.034;73.150;2023-07-02T15:24:44;26.63;45.58
72762;SHT30;60886;55.034;73.150;2023-07-02T15:27:45;26.48;46.28
72762;SHT30;60886;55.034;73.150;2023-07-02T15:30:54;26.34;46.79
72762;SHT30;60886;55.034;73.150;2023-07-02T15:33:56;26.21;45.94
72762;SHT30;60886;55.034;73.150;2023-07-02T15:36:57;26.11;45.73
72762;SHT30;60886;55.034;73.150;2023-07-02T15:39:58;26.00;46.69
72762;SHT30;60886;55.034;73.150;2023-07-02T15:43:00;25.87;48.84
72762;SHT30;60886;55.034;73.150;2023-07-02T15:46:01;25.76;48.14
72762;SHT30;60886;55.034;73.150;2023-07-02T15:49:03;25.63;47.57
72762;SHT30;60886;55.034;73.150;2023-07-02T15:52:06;25.50;47.97
72762;SHT30;60886;55.034;73.150;2023-07-02T15:55:07;25.43;48.48
72762;SHT30;60886;55.034;73.150;2023-07-02T15:58:09;25.29;48.42
72762;SHT30;60886;55.034;73.150;2023-07-02T16:01:13;25.22;47.35
72762;SHT30;60886;55.034;73.150;2023-07-02T16:04:14;25.12;47.67
72762;SHT30;60886;55.034;73.150;2023-07-02T16:07:16;25.02;50.27
72762;SHT30;60886;55.034;73.150;2023-07-02T16:10:18;24.98;49.67
72762;SHT30;60886;55.034;73.150;2023-07-02T16:13:19;24.89;50.75
72762;SHT30;60886;55.034;73.150;2023-07-02T16:16:21;24.81;51.70
72762;SHT30;60886;55.034;73.150;2023-07-02T16:19:22;24.72;50.03
72762;SHT30;60886;55.034;73.150;2023-07-02T16:22:24;24.72;47.57
72762;SHT30;60886;55.034;73.150;2023-07-02T16:25:26;24.72;45.58
72762;SHT30;60886;55.034;73.150;2023-07-02T16:28:28;24.74;46.53
72762;SHT30;60886;55.034;73.150;2023-07-02T16:31:30;24.68;46.88
72762;SHT30;60886;55.034;73.150;2023-07-02T16:34:32;24.60;48.48
72762;SHT30;60886;55.034;73.150;2023-07-02T16:37:33;24.51;47.60
72762;SHT30;60886;55.034;73.150;2023-07-02T16:40:38;24.45;46.92
72762;SHT30;60886;55.034;73.150;2023-07-02T16:43:42;24.42;47.10
72762;SHT30;60886;55.034;73.150;2023-07-02T16:46:49;24.40;47.13
72762;SHT30;60886;55.034;73.150;2023-07-02T16:49:52;24.37;47.60
72762;SHT30;60886;55.034;73.150;2023-07-02T16:52:54;24.30;49.19
72762;SHT30;60886;55.034;73.150;2023-07-02T16:55:59;24.22;48.30
72762;SHT30;60886;55.034;73.150;2023-07-02T16:59:01;24.16;50.02
72762;SHT30;60886;55.034;73.150;2023-07-02T17:02:05;24.11;48.42
72762;SHT30;60886;55.034;73.150;2023-07-02T17:05:07;24.09;48.91
72762;SHT30;60886;55.034;73.150;2023-07-02T17:08:09;24.04;49.10
72762;SHT30;60886;55.034;73.150;2023-07-02T17:11:11;23.99;49.43
72762;SHT30;60886;55.034;73.150;2023-07-02T17:14:14;23.90;49.82
72762;SHT30;60886;55.034;73.150;2023-07-02T17:17:23;23.84;50.07
72762;SHT30;60886;55.034;73.150;2023-07-02T17:20:28;23.80;50.14
72762;SHT30;60886;55.034;73.150;2023-07-02T17:23:29;23.74;49.88
72762;SHT30;60886;55.034;73.150;2023-07-02T17:26:30;23.71;50.21
72762;SHT30;60886;55.034;73.150;2023-07-02T17:29:32;23.69;50.37
72762;SHT30;60886;55.034;73.150;2023-07-02T17:32:34;23.62;50.99
72762;SHT30;60886;55.034;73.150;2023-07-02T17:35:42;23.53;50.59
72762;SHT30;60886;55.034;73.150;2023-07-02T17:38:43;23.50;51.31
72762;SHT30;60886;55.034;73.150;2023-07-02T17:41:45;23.43;51.02
72762;SHT30;60886;55.034;73.150;2023-07-02T17:44:47;23.39;51.08
72762;SHT30;60886;55.034;73.150;2023-07-02T17:47:49;23.33;51.84
72762;SHT30;60886;55.034;73.150;2023-07-02T17:50:55;23.26;51.33
72762;SHT30;60886;55.034;73.150;2023-07-02T17:53:56;23.23;51.44
72762;SHT30;60886;55.034;73.150;2023-07-02T17:56:58;23.18;51.17
72762;SHT30;60886;55.034;73.150;2023-07-02T17:59:59;23.16;51.25
72762;SHT30;60886;55.034;73.150;2023-07-02T18:03:03;23.14;51.90
72762;SHT30;60886;55.034;73.150;2023-07-02T18:06:04;23.11;51.43
72762;SHT30;60886;55.034;73.150;2023-07-02T18:09:06;23.05;51.94
72762;SHT30;60886;55.034;73.150;2023-07-02T18:12:11;23.06;51.92
72762;SHT30;60886;55.034;73.150;2023-07-02T18:15:13;22.98;52.11
72762;SHT30;60886;55.034;73.150;2023-07-02T18:18:15;22.95;52.57
72762;SHT30;60886;55.034;73.150;2023-07-02T18:21:16;22.91;52.14
72762;SHT30;60886;55.034;73.150;2023-07-02T18:24:18;22.91;52.19
72762;SHT30;60886;55.034;73.150;2023-07-02T18:27:19;22.87;52.89
72762;SHT30;60886;55.034;73.150;2023-07-02T18:30:20;22.79;52.64
72762;SHT30;60886;55.034;73.150;2023-07-02T18:33:22;22.76;53.06
72762;SHT30;60886;55.034;73.150;2023-07-02T18:36:24;22.68;52.52
72762;SHT30;60886;55.034;73.150;2023-07-02T18:39:26;22.68;52.85
72762;SHT30;60886;55.034;73.150;2023-07-02T18:42:32;22.63;52.83
72762;SHT30;60886;55.034;73.150;2023-07-02T18:45:38;22.55;53.47
72762;SHT30;60886;55.034;73.150;2023-07-02T18:48:40;22.54;53.41
72762;SHT30;60886;55.034;73.150;2023-07-02T18:51:41;22.51;53.30
72762;SHT30;60886;55.034;73.150;2023-07-02T18:54:42;22.44;53.00
72762;SHT30;60886;55.034;73.150;2023-07-02T18:57:44;22.43;53.20